Time;durP1;ratioP1;P1;durP2;ratioP2;P2;SDS_P1;SDS_P2;PMS_P1;PMS_P2;Temp;Humidity;BMP_temperature;BMP_pressure;BME280_temperature;BME280_humidity;BME280_pressure;Samples;Min_cycle;Max_cycle;Signal;HPM_P1;HPM_P2
2022/10/15 00:00:46;;;;;;;9.68;7.70;;;13.10;99.90;;;;;;5003777;28;20022;-50
2022/10/15 00:03:12;;;;;;;9.30;8.07;;;13.10;99.90;;;;;;5012881;28;20026;-53
2022/10/15 00:05:41;;;;;;;10.82;9.48;;;13.10;99.90;;;;;;5003192;28;20030;-54
2022/10/15 00:08:08;;;;;;;9.43;7.70;;;13.10;99.90;;;;;;4999029;28;20116;-50
2022/10/15 00:10:34;;;;;;;9.63;8.73;;;13.10;99.90;;;;;;5003927;28;20033;-51
2022/10/15 00:13:00;;;;;;;9.00;8.10;;;13.10;99.90;;;;;;4998450;28;20101;-51
2022/10/15 00:15:26;;;;;;;9.38;8.35;;;13.10;99.90;;;;;;4997816;28;20101;-51
2022/10/15 00:17:51;;;;;;;10.73;8.13;;;13.10;99.90;;;;;;5004380;28;20037;-50
2022/10/15 00:20:17;;;;;;;12.45;8.70;;;13.10;99.90;;;;;;4989771;28;20121;-52
2022/10/15 00:22:43;;;;;;;14.27;10.43;;;13.20;99.90;;;;;;4997285;28;20491;-50
2022/10/15 00:25:10;;;;;;;18.67;11.60;;;13.20;99.90;;;;;;5000596;28;20042;-54
2022/10/15 00:27:36;;;;;;;18.20;15.27;;;13.20;99.90;;;;;;4999859;28;20065;-51
2022/10/15 00:30:04;;;;;;;18.83;16.77;;;13.20;99.90;;;;;;4996309;28;20050;-52
2022/10/15 00:32:30;;;;;;;27.85;21.90;;;13.20;99.90;;;;;;5003248;28;20028;-51
2022/10/15 00:34:55;;;;;;;32.53;27.20;;;13.20;99.90;;;;;;4998502;28;20023;-52
2022/10/15 00:37:22;;;;;;;36.20;28.20;;;13.20;99.90;;;;;;5002705;28;20030;-54
2022/10/15 00:39:47;;;;;;;35.53;29.25;;;13.20;99.90;;;;;;4996749;28;20049;-53
2022/10/15 00:42:13;;;;;;;35.95;29.45;;;13.20;99.90;;;;;;5000615;28;20047;-54
2022/10/15 00:44:47;;;;;;;33.50;26.63;;;13.20;99.90;;;;;;4994529;28;20446;-51
2022/10/15 00:47:24;;;;;;;39.55;27.63;;;13.30;99.90;;;;;;5000814;28;20033;-54
2022/10/15 00:49:58;;;;;;;27.10;21.80;;;13.30;99.90;;;;;;5002262;28;20023;-54
2022/10/15 00:52:48;;;;;;;19.50;14.20;;;13.30;99.90;;;;;;5000332;28;20109;-54
2022/10/15 00:55:26;;;;;;;17.00;12.25;;;13.30;99.90;;;;;;4993622;28;20025;-53
2022/10/15 00:57:52;;;;;;;13.13;11.00;;;13.30;99.90;;;;;;4999179;28;20038;-54
2022/10/15 01:00:18;;;;;;;13.68;11.38;;;13.40;99.90;;;;;;4995417;28;20113;-51
2022/10/15 01:02:44;;;;;;;18.30;11.55;;;13.40;99.90;;;;;;4992905;28;20034;-53
2022/10/15 01:05:11;;;;;;;14.25;11.18;;;13.40;99.90;;;;;;4992790;28;20036;-54
2022/10/15 01:07:37;;;;;;;15.55;11.85;;;13.40;99.90;;;;;;4998232;28;20030;-50
2022/10/15 01:10:05;;;;;;;16.40;12.07;;;13.40;99.90;;;;;;4999388;28;20036;-51
2022/10/15 01:12:47;;;;;;;15.98;12.35;;;13.40;99.90;;;;;;5015198;28;20022;-54
2022/10/15 01:15:33;;;;;;;18.02;13.13;;;13.40;99.90;;;;;;4992910;28;20030;-50
2022/10/15 01:18:09;;;;;;;18.45;12.27;;;13.40;99.90;;;;;;5006057;28;20026;-52
2022/10/15 01:20:57;;;;;;;17.65;12.85;;;13.40;99.90;;;;;;5019607;22;20163;-50
2022/10/15 01:23:53;;;;;;;20.15;14.60;;;13.50;99.90;;;;;;4979606;28;20022;-53
2022/10/15 01:26:56;;;;;;;20.90;15.00;;;13.40;99.90;;;;;;4998723;28;20030;-52
2022/10/15 01:29:59;;;;;;;18.73;14.07;;;13.50;99.90;;;;;;4993345;28;20037;-50
2022/10/15 01:32:27;;;;;;;21.27;16.63;;;13.40;99.90;;;;;;4996831;28;20033;-52
2022/10/15 01:35:19;;;;;;;20.65;14.40;;;13.40;99.90;;;;;;4998815;28;20037;-52
2022/10/15 01:38:03;;;;;;;22.58;16.00;;;13.40;99.90;;;;;;4997036;28;20026;-55
2022/10/15 01:40:37;;;;;;;18.45;14.95;;;13.40;99.90;;;;;;4988878;28;20074;-50
2022/10/15 01:43:16;;;;;;;24.73;16.48;;;13.40;99.90;;;;;;4980444;28;20558;-52
2022/10/15 01:45:59;;;;;;;23.20;16.40;;;13.40;99.90;;;;;;4998421;28;20022;-53
2022/10/15 01:48:27;;;;;;;23.48;16.42;;;13.40;99.90;;;;;;4997050;28;20599;-49
2022/10/15 01:50:56;;;;;;;27.20;16.70;;;13.40;99.90;;;;;;5000431;28;20026;-49
2022/10/15 01:53:25;;;;;;;25.30;17.08;;;13.40;99.90;;;;;;5004407;28;20511;-52
2022/10/15 01:55:59;;;;;;;23.70;17.05;;;13.40;99.90;;;;;;5005400;28;20022;-50
2022/10/15 01:58:26;;;;;;;24.70;16.52;;;13.40;99.90;;;;;;4981088;28;20026;-52
2022/10/15 02:00:54;;;;;;;22.58;16.77;;;13.30;99.90;;;;;;4982993;28;20164;-52
2022/10/15 02:03:20;;;;;;;21.80;16.27;;;13.30;99.90;;;;;;4999406;28;20072;-51
2022/10/15 02:06:09;;;;;;;26.02;17.67;;;13.30;99.90;;;;;;4983186;28;20034;-58
2022/10/15 02:08:55;;;;;;;22.50;15.90;;;13.30;99.90;;;;;;4993018;28;20015;-51
2022/10/15 02:11:20;;;;;;;27.77;18.90;;;13.30;99.90;;;;;;5001993;28;20499;-51
2022/10/15 02:14:14;;;;;;;23.15;17.85;;;13.30;99.90;;;;;;4999679;28;20269;-54
2022/10/15 02:17:00;;;;;;;28.00;18.88;;;13.30;99.90;;;;;;4995832;28;20084;-55
2022/10/15 02:19:41;;;;;;;25.52;18.02;;;13.30;99.90;;;;;;4993393;28;20026;-55
2022/10/15 02:22:34;;;;;;;23.95;17.80;;;13.20;99.90;;;;;;4982549;28;20715;-51
2022/10/15 02:25:26;;;;;;;26.70;17.05;;;13.20;99.90;;;;;;4995739;28;20278;-49
2022/10/15 02:27:54;;;;;;;22.48;16.50;;;13.20;99.90;;;;;;4999844;28;20042;-50
2022/10/15 02:30:20;;;;;;;24.25;17.15;;;13.20;99.90;;;;;;4993772;28;20041;-51
2022/10/15 02:32:50;;;;;;;24.73;17.60;;;13.20;99.90;;;;;;4999163;28;20026;-53
2022/10/15 02:35:19;;;;;;;24.85;17.80;;;13.10;99.90;;;;;;4996731;28;20037;-50
2022/10/15 02:37:49;;;;;;;25.50;18.35;;;13.10;99.90;;;;;;5003897;28;20034;-52
2022/10/15 02:40:19;;;;;;;25.85;18.15;;;13.10;99.90;;;;;;4996857;28;20432;-50
2022/10/15 02:42:45;;;;;;;23.20;16.15;;;13.10;99.90;;;;;;4997639;28;20437;-51
2022/10/15 02:45:10;;;;;;;28.20;19.40;;;13.10;99.90;;;;;;5002409;28;20038;-50
2022/10/15 02:47:36;;;;;;;29.67;18.45;;;13.10;99.90;;;;;;4994802;28;20030;-49
2022/10/15 02:50:03;;;;;;;28.35;19.48;;;13.10;99.90;;;;;;4986553;28;20428;-53
2022/10/15 02:52:28;;;;;;;27.52;18.92;;;13.10;99.90;;;;;;4996273;28;20072;-50
2022/10/15 02:54:54;;;;;;;25.13;17.38;;;13.00;99.90;;;;;;5001116;28;20026;-50
2022/10/15 02:57:19;;;;;;;29.02;19.20;;;13.00;99.90;;;;;;4976655;28;20081;-49
2022/10/15 02:59:45;;;;;;;27.67;18.75;;;13.00;99.90;;;;;;5000128;28;20026;-55
2022/10/15 03:02:11;;;;;;;29.15;20.17;;;13.00;99.90;;;;;;4997123;28;20022;-54
2022/10/15 03:04:36;;;;;;;27.38;19.75;;;13.00;99.90;;;;;;4997448;28;20026;-51
2022/10/15 03:07:02;;;;;;;32.03;21.05;;;13.00;99.90;;;;;;4983100;28;20030;-53
2022/10/15 03:09:27;;;;;;;29.98;20.02;;;13.00;99.90;;;;;;4997081;28;20027;-55
2022/10/15 03:11:53;;;;;;;30.67;20.10;;;13.00;99.90;;;;;;5003885;28;20481;-50
2022/10/15 03:14:18;;;;;;;29.08;20.15;;;13.00;99.90;;;;;;4977420;28;20029;-49
2022/10/15 03:16:44;;;;;;;27.70;18.70;;;12.90;99.90;;;;;;5003888;28;20505;-51
2022/10/15 03:19:09;;;;;;;30.75;20.92;;;12.90;99.90;;;;;;4996317;28;20037;-51
2022/10/15 03:21:35;;;;;;;29.40;20.95;;;12.90;99.90;;;;;;4997518;28;20030;-50
2022/10/15 03:24:01;;;;;;;26.38;18.67;;;12.80;99.90;;;;;;4998074;28;20026;-49
2022/10/15 03:26:26;;;;;;;28.35;19.80;;;12.80;99.90;;;;;;4996213;28;20030;-53
2022/10/15 03:28:52;;;;;;;26.63;17.70;;;12.70;99.90;;;;;;4999027;28;20037;-54
2022/10/15 03:31:17;;;;;;;26.80;18.75;;;12.70;99.90;;;;;;4982373;28;20501;-51
2022/10/15 03:33:43;;;;;;;21.65;17.13;;;12.70;99.90;;;;;;5003332;28;20401;-50
2022/10/15 03:36:09;;;;;;;28.40;19.30;;;12.60;99.90;;;;;;5002315;28;20030;-52
2022/10/15 03:38:34;;;;;;;25.92;19.00;;;12.60;99.90;;;;;;4985800;28;20041;-53
2022/10/15 03:41:00;;;;;;;26.90;19.10;;;12.60;99.90;;;;;;5000143;28;20030;-49
2022/10/15 03:43:25;;;;;;;33.00;20.75;;;12.60;99.90;;;;;;4997877;28;20598;-49
2022/10/15 03:45:52;;;;;;;26.58;19.55;;;12.60;99.90;;;;;;5003733;28;20034;-52
2022/10/15 03:48:18;;;;;;;27.40;18.98;;;12.50;99.90;;;;;;5001075;28;20022;-54
2022/10/15 03:50:45;;;;;;;26.80;17.85;;;12.50;99.90;;;;;;5004448;28;20026;-50
2022/10/15 03:53:11;;;;;;;24.05;17.77;;;12.50;99.90;;;;;;4998089;28;20021;-55
2022/10/15 03:55:36;;;;;;;27.80;17.40;;;12.50;99.90;;;;;;4980252;28;20319;-53
2022/10/15 03:58:02;;;;;;;27.02;18.63;;;12.50;99.90;;;;;;5004062;28;20032;-52
2022/10/15 04:00:27;;;;;;;25.63;16.98;;;12.50;99.90;;;;;;4997773;28;20030;-52
2022/10/15 04:02:53;;;;;;;22.80;16.02;;;12.40;99.90;;;;;;4986840;28;20026;-54
2022/10/15 04:05:19;;;;;;;21.92;15.02;;;12.40;99.90;;;;;;4998088;28;20428;-53
2022/10/15 04:07:44;;;;;;;22.33;16.13;;;12.30;99.90;;;;;;5005178;28;20022;-55
2022/10/15 04:10:10;;;;;;;22.73;15.90;;;12.20;99.90;;;;;;4998346;28;20481;-54
2022/10/15 04:12:35;;;;;;;20.20;15.82;;;12.20;99.90;;;;;;4964081;28;20117;-52
2022/10/15 04:15:01;;;;;;;19.30;13.52;;;12.20;99.90;;;;;;5003901;28;20379;-50
2022/10/15 04:17:27;;;;;;;20.77;14.73;;;12.20;99.90;;;;;;4997649;28;20022;-49
2022/10/15 04:19:52;;;;;;;19.95;14.13;;;12.10;99.90;;;;;;4986938;28;20022;-52
2022/10/15 04:22:18;;;;;;;17.75;13.65;;;12.10;99.90;;;;;;4979619;28;20392;-51
2022/10/15 04:24:43;;;;;;;18.73;14.07;;;12.10;99.90;;;;;;5004943;28;20029;-50
2022/10/15 04:27:11;;;;;;;17.77;13.82;;;12.10;99.90;;;;;;4998378;28;20027;-52
2022/10/15 04:29:37;;;;;;;20.73;14.35;;;12.10;99.90;;;;;;4991491;28;20365;-54
2022/10/15 04:32:02;;;;;;;18.65;13.82;;;12.00;99.90;;;;;;5003592;28;20029;-50
2022/10/15 04:34:28;;;;;;;25.38;15.85;;;12.00;99.90;;;;;;4997542;28;20315;-52
2022/10/15 04:36:54;;;;;;;27.98;15.40;;;12.00;99.90;;;;;;5004465;28;20034;-53
2022/10/15 04:39:20;;;;;;;22.80;15.27;;;12.00;99.90;;;;;;4996110;28;20476;-52
2022/10/15 04:41:46;;;;;;;22.90;14.88;;;12.00;99.90;;;;;;5004938;28;20050;-51
2022/10/15 04:44:12;;;;;;;19.05;14.55;;;12.00;99.90;;;;;;4980028;28;20056;-49
2022/10/15 04:46:37;;;;;;;22.70;14.85;;;12.00;99.90;;;;;;4997578;28;20500;-50
2022/10/15 04:49:03;;;;;;;19.10;14.60;;;12.00;99.90;;;;;;5006540;28;20037;-52
2022/10/15 04:51:29;;;;;;;19.58;13.45;;;12.00;99.90;;;;;;5001531;28;20021;-56
2022/10/15 04:53:54;;;;;;;18.00;13.45;;;12.00;99.90;;;;;;5008636;28;20135;-50
2022/10/15 04:56:21;;;;;;;21.48;14.95;;;12.00;99.90;;;;;;4980204;28;20032;-51
2022/10/15 04:58:48;;;;;;;19.73;14.63;;;12.00;99.90;;;;;;5003000;28;20036;-49
2022/10/15 05:01:16;;;;;;;23.00;14.95;;;12.00;99.90;;;;;;4985212;28;20040;-51
2022/10/15 05:03:44;;;;;;;24.10;15.20;;;12.00;99.90;;;;;;4986559;28;20125;-52
2022/10/15 05:06:16;;;;;;;20.70;14.57;;;12.00;99.90;;;;;;4998788;28;20030;-51
2022/10/15 05:08:42;;;;;;;26.80;16.13;;;12.00;99.90;;;;;;4987384;28;20134;-50
2022/10/15 05:11:22;;;;;;;21.88;13.93;;;12.00;99.90;;;;;;5002679;28;20034;-49
2022/10/15 05:13:47;;;;;;;26.48;15.95;;;12.00;99.90;;;;;;4996977;28;20026;-52
2022/10/15 05:16:19;;;;;;;22.95;15.52;;;12.00;99.90;;;;;;4984998;28;20032;-51
2022/10/15 05:18:47;;;;;;;30.50;17.80;;;12.00;99.90;;;;;;4979165;28;20040;-52
2022/10/15 05:21:13;;;;;;;22.25;16.15;;;12.00;99.90;;;;;;5003776;28;20026;-51
2022/10/15 05:23:39;;;;;;;29.08;19.02;;;12.00;99.90;;;;;;4970104;28;20030;-49
2022/10/15 05:26:09;;;;;;;32.45;18.27;;;12.10;99.90;;;;;;5002728;28;20028;-50
2022/10/15 05:28:35;;;;;;;25.70;17.38;;;12.00;99.90;;;;;;4986138;28;20022;-52
2022/10/15 05:31:05;;;;;;;32.97;17.80;;;12.10;99.90;;;;;;5001043;28;20030;-49
2022/10/15 05:33:31;;;;;;;27.35;17.25;;;12.10;99.90;;;;;;5003444;28;20610;-49
2022/10/15 05:35:57;;;;;;;29.95;17.45;;;12.10;99.90;;;;;;5002252;28;20029;-50
2022/10/15 05:38:22;;;;;;;29.02;18.13;;;12.10;99.90;;;;;;5003843;28;20037;-51
2022/10/15 05:40:48;;;;;;;29.65;19.05;;;12.10;99.90;;;;;;5003259;28;20018;-51
2022/10/15 05:43:14;;;;;;;31.75;18.20;;;12.10;99.90;;;;;;5000362;28;20070;-48
2022/10/15 05:45:40;;;;;;;31.00;18.77;;;12.10;99.90;;;;;;4979304;28;20345;-50
2022/10/15 05:48:06;;;;;;;36.25;20.42;;;12.10;99.90;;;;;;4999797;28;20015;-51
2022/10/15 05:50:32;;;;;;;31.00;18.13;;;12.10;99.90;;;;;;5003186;28;20104;-49
2022/10/15 05:52:57;;;;;;;31.67;18.75;;;12.10;99.90;;;;;;4995272;28;20217;-49
2022/10/15 05:55:23;;;;;;;40.90;20.98;;;12.10;99.90;;;;;;4981385;28;20454;-49
2022/10/15 05:57:48;;;;;;;40.47;21.08;;;12.10;99.90;;;;;;4980479;28;20026;-55
2022/10/15 06:00:14;;;;;;;37.65;20.80;;;12.10;99.90;;;;;;5002479;28;20026;-49
2022/10/15 06:02:40;;;;;;;33.05;18.52;;;12.20;99.90;;;;;;5004225;28;20087;-49
2022/10/15 06:05:06;;;;;;;44.17;21.35;;;12.20;99.90;;;;;;5000338;28;20045;-54
2022/10/15 06:07:31;;;;;;;39.13;20.40;;;12.10;99.90;;;;;;4987595;28;20476;-49
2022/10/15 06:09:57;;;;;;;36.28;19.45;;;12.20;99.90;;;;;;4993387;28;20582;-53
2022/10/15 06:12:22;;;;;;;41.22;21.00;;;12.10;99.90;;;;;;4983271;28;20025;-51
2022/10/15 06:14:48;;;;;;;38.42;20.77;;;12.20;99.90;;;;;;5004632;28;20025;-50
2022/10/15 06:17:14;;;;;;;37.30;21.33;;;12.20;99.90;;;;;;4972277;28;20041;-52
2022/10/15 06:19:39;;;;;;;47.03;23.13;;;12.10;99.90;;;;;;4981917;28;20115;-52
2022/10/15 06:22:05;;;;;;;50.55;24.70;;;12.10;99.90;;;;;;5000427;28;20034;-49
2022/10/15 06:24:30;;;;;;;39.75;21.85;;;12.10;99.90;;;;;;4987096;28;20179;-51
2022/10/15 06:26:58;;;;;;;39.70;21.63;;;12.10;99.90;;;;;;5001684;28;20021;-49
2022/10/15 06:29:23;;;;;;;38.83;21.92;;;12.10;99.90;;;;;;4998749;28;20014;-53
2022/10/15 06:31:49;;;;;;;42.78;21.38;;;12.10;99.90;;;;;;5005182;28;20022;-52
2022/10/15 06:34:15;;;;;;;40.60;22.27;;;12.10;99.90;;;;;;4999420;28;20056;-49
2022/10/15 06:36:40;;;;;;;40.17;22.02;;;12.10;99.90;;;;;;5005530;28;20026;-51
2022/10/15 06:39:06;;;;;;;38.83;21.30;;;12.10;99.90;;;;;;4982672;28;20117;-51
2022/10/15 06:41:31;;;;;;;40.45;22.65;;;12.10;99.90;;;;;;4984761;28;20061;-49
2022/10/15 06:43:57;;;;;;;46.08;22.60;;;12.20;99.90;;;;;;5001911;28;20515;-48
2022/10/15 06:46:23;;;;;;;42.90;22.75;;;12.20;99.90;;;;;;4973540;28;20377;-50
2022/10/15 06:48:50;;;;;;;45.63;23.38;;;12.20;99.90;;;;;;4998931;28;20026;-52
2022/10/15 06:51:16;;;;;;;40.78;23.55;;;12.20;99.90;;;;;;4994991;28;20502;-48
2022/10/15 06:53:42;;;;;;;41.03;23.02;;;12.20;99.90;;;;;;5005007;28;20025;-51
2022/10/15 06:56:08;;;;;;;41.30;23.73;;;12.20;99.90;;;;;;4994146;28;20038;-48
2022/10/15 06:58:33;;;;;;;52.17;26.27;;;12.20;99.90;;;;;;4998451;28;20029;-48
2022/10/15 07:01:04;;;;;;;47.60;22.85;;;12.20;99.90;;;;;;4998893;28;20030;-49
2022/10/15 07:03:31;;;;;;;42.78;24.35;;;12.20;99.90;;;;;;4998192;28;20071;-49
2022/10/15 07:06:02;;;;;;;53.17;23.75;;;12.20;99.90;;;;;;4999669;28;20041;-50
2022/10/15 07:08:28;;;;;;;42.28;23.83;;;12.20;99.90;;;;;;5004590;28;20097;-55
2022/10/15 07:10:53;;;;;;;46.42;24.77;;;12.20;99.90;;;;;;4995544;28;20105;-51
2022/10/15 07:13:19;;;;;;;46.05;25.02;;;12.20;99.90;;;;;;4983610;28;20022;-51
2022/10/15 07:15:46;;;;;;;53.30;26.98;;;12.20;99.90;;;;;;4996228;28;20050;-48
2022/10/15 07:18:11;;;;;;;48.45;23.98;;;12.20;99.90;;;;;;5002102;28;20396;-52
2022/10/15 07:20:37;;;;;;;48.03;25.23;;;12.20;99.90;;;;;;5022567;23;20052;-49
2022/10/15 07:23:02;;;;;;;46.60;25.35;;;12.20;99.90;;;;;;5019954;28;20435;-50
2022/10/15 07:25:28;;;;;;;43.85;24.85;;;12.30;99.90;;;;;;5020969;28;20045;-53
2022/10/15 07:27:55;;;;;;;56.40;28.00;;;12.30;99.90;;;;;;5016471;28;20034;-51
2022/10/15 07:30:22;;;;;;;46.80;24.23;;;12.30;99.90;;;;;;5014780;28;20040;-52
2022/10/15 07:32:47;;;;;;;54.05;25.98;;;12.30;99.90;;;;;;5019696;28;20476;-53
2022/10/15 07:35:13;;;;;;;50.55;25.08;;;12.30;99.90;;;;;;5015314;28;20104;-50
2022/10/15 07:37:39;;;;;;;47.95;25.38;;;12.40;99.90;;;;;;5021879;28;20065;-54
2022/10/15 07:40:05;;;;;;;48.83;24.83;;;12.40;99.90;;;;;;5014597;28;20109;-50
2022/10/15 07:42:31;;;;;;;52.22;26.20;;;12.40;99.90;;;;;;5023478;28;20053;-51
2022/10/15 07:44:57;;;;;;;47.40;24.48;;;12.40;99.90;;;;;;5019036;28;20081;-50
2022/10/15 07:47:22;;;;;;;45.63;24.60;;;12.40;99.90;;;;;;5021390;28;20032;-52
2022/10/15 07:49:48;;;;;;;49.08;24.13;;;12.50;99.90;;;;;;5019326;28;20109;-54
2022/10/15 07:52:13;;;;;;;47.35;23.52;;;12.50;99.90;;;;;;5021123;28;20419;-49
2022/10/15 07:54:39;;;;;;;40.15;23.13;;;12.50;99.90;;;;;;5020466;28;20045;-52
2022/10/15 07:57:08;;;;;;;43.85;23.70;;;12.50;99.90;;;;;;5016924;28;20037;-51
2022/10/15 07:59:34;;;;;;;44.22;22.60;;;12.60;99.90;;;;;;5022504;28;20049;-53
2022/10/15 08:01:59;;;;;;;47.47;23.63;;;12.60;99.90;;;;;;5020185;28;20132;-50
2022/10/15 08:04:25;;;;;;;43.17;23.98;;;12.60;99.90;;;;;;5021239;28;20131;-50
2022/10/15 08:06:50;;;;;;;43.97;22.77;;;12.70;99.90;;;;;;5020791;28;20032;-53
2022/10/15 08:09:16;;;;;;;42.30;23.33;;;12.70;99.90;;;;;;5021367;28;20013;-50
2022/10/15 08:11:42;;;;;;;44.55;23.77;;;12.80;99.90;;;;;;5020946;28;20337;-50
2022/10/15 08:14:07;;;;;;;47.35;22.00;;;12.80;99.90;;;;;;5019147;28;20026;-50
2022/10/15 08:16:34;;;;;;;44.35;23.45;;;12.90;99.90;;;;;;5015821;28;20054;-51
2022/10/15 08:18:59;;;;;;;39.80;23.58;;;12.90;99.90;;;;;;5020829;28;20043;-50
2022/10/15 08:21:25;;;;;;;37.35;21.88;;;12.90;99.90;;;;;;5036095;28;20033;-51
2022/10/15 08:23:51;;;;;;;40.83;21.92;;;12.90;99.90;;;;;;5022031;28;20037;-49
2022/10/15 08:26:16;;;;;;;37.28;21.27;;;13.00;99.90;;;;;;5021059;28;20030;-49
2022/10/15 08:28:42;;;;;;;38.78;21.95;;;12.90;99.90;;;;;;5021284;28;20567;-50
2022/10/15 08:31:08;;;;;;;35.53;20.90;;;12.90;99.90;;;;;;5012615;28;20026;-53
2022/10/15 08:33:34;;;;;;;36.40;21.58;;;13.00;99.90;;;;;;5021101;28;20017;-50
2022/10/15 08:36:00;;;;;;;34.20;20.20;;;13.00;99.90;;;;;;5019667;28;20037;-50
2022/10/15 08:38:26;;;;;;;35.53;20.05;;;13.00;99.90;;;;;;5020784;28;20022;-51
2022/10/15 08:40:54;;;;;;;38.67;21.50;;;13.00;99.90;;;;;;5020421;28;20096;-50
2022/10/15 08:43:36;;;;;;;36.90;20.73;;;13.00;99.90;;;;;;5020672;28;20037;-51
2022/10/15 08:46:08;;;;;;;33.22;19.77;;;13.10;99.90;;;;;;5034010;28;20410;-49
2022/10/15 08:48:40;;;;;;;35.50;20.13;;;13.10;99.90;;;;;;5021794;28;20025;-49
2022/10/15 08:51:29;;;;;;;33.72;18.60;;;13.20;99.90;;;;;;5018198;28;20082;-51
2022/10/15 08:54:04;;;;;;;36.67;20.08;;;13.20;99.90;;;;;;5024558;28;20041;-50
2022/10/15 08:56:39;;;;;;;27.30;17.13;;;13.20;99.90;;;;;;5017370;28;20021;-49
2022/10/15 08:59:35;;;;;;;34.55;19.35;;;13.30;99.90;;;;;;5018281;28;20058;-53
2022/10/15 09:02:22;;;;;;;30.90;18.00;;;13.40;99.90;;;;;;5019103;28;20076;-52
2022/10/15 09:04:55;;;;;;;32.25;18.92;;;13.40;99.90;;;;;;5013405;28;20041;-50
2022/10/15 09:07:43;;;;;;;28.13;17.35;;;13.40;99.90;;;;;;5018285;28;20057;-49
2022/10/15 09:10:17;;;;;;;34.28;18.40;;;13.40;99.90;;;;;;5022603;28;20388;-50
2022/10/15 09:13:06;;;;;;;27.00;16.75;;;13.40;99.90;;;;;;5012913;28;20022;-49
2022/10/15 09:15:39;;;;;;;27.17;17.63;;;13.40;99.90;;;;;;5012281;28;20057;-49
2022/10/15 09:18:16;;;;;;;28.95;17.25;;;13.40;99.90;;;;;;5019259;28;20030;-51
2022/10/15 09:20:42;;;;;;;30.67;18.23;;;13.50;99.90;;;;;;5020380;28;20120;-49
2022/10/15 09:23:15;;;;;;;27.27;17.00;;;13.60;99.90;;;;;;5019381;28;20026;-49
2022/10/15 09:25:46;;;;;;;27.98;17.08;;;13.70;99.90;;;;;;5020761;28;20030;-50
2022/10/15 09:28:17;;;;;;;29.48;17.08;;;13.90;99.90;;;;;;5020227;28;20026;-52
2022/10/15 09:30:54;;;;;;;25.10;15.93;;;14.00;99.90;;;;;;5017936;28;20400;-50
2022/10/15 09:33:34;;;;;;;26.30;16.58;;;14.10;99.90;;;;;;5009181;28;20360;-53
2022/10/15 09:36:34;;;;;;;25.80;16.13;;;14.10;99.90;;;;;;5020994;28;20041;-49
2022/10/15 09:39:14;;;;;;;20.20;13.63;;;14.10;99.90;;;;;;5011050;28;20045;-52
2022/10/15 09:42:06;;;;;;;25.48;16.20;;;14.10;99.90;;;;;;5022899;28;20155;-52
2022/10/15 09:44:37;;;;;;;21.50;14.45;;;14.10;99.90;;;;;;5019129;28;20125;-50
2022/10/15 09:47:15;;;;;;;21.48;13.38;;;14.00;99.90;;;;;;5022463;28;20493;-50
2022/10/15 09:49:41;;;;;;;21.88;14.65;;;14.00;99.90;;;;;;5025380;28;20022;-50
2022/10/15 09:52:21;;;;;;;18.80;13.43;;;14.10;99.90;;;;;;5022517;28;20556;-50
2022/10/15 09:54:56;;;;;;;20.98;13.82;;;14.10;99.90;;;;;;5026868;28;20030;-51
2022/10/15 09:57:23;;;;;;;22.92;14.98;;;14.20;99.90;;;;;;5022580;28;20025;-49
2022/10/15 09:59:53;;;;;;;18.50;13.55;;;14.20;99.90;;;;;;5023319;28;20029;-50
2022/10/15 10:02:21;;;;;;;20.00;14.15;;;14.30;99.90;;;;;;5022347;28;20021;-51
2022/10/15 10:04:47;;;;;;;19.15;13.60;;;14.30;99.90;;;;;;5019879;28;20520;-50
2022/10/15 10:07:45;;;;;;;19.55;12.68;;;14.40;99.90;;;;;;5016684;28;20030;-51
2022/10/15 10:10:28;;;;;;;17.70;12.32;;;14.50;99.90;;;;;;4975628;28;20037;-51
2022/10/15 10:12:55;;;;;;;21.45;13.15;;;14.50;99.90;;;;;;5019597;28;20507;-52
2022/10/15 10:15:20;;;;;;;20.00;12.93;;;14.50;99.90;;;;;;5023375;28;20057;-52
2022/10/15 10:17:53;;;;;;;18.17;12.23;;;14.60;99.90;;;;;;5019446;28;20066;-50
2022/10/15 10:20:22;;;;;;;21.67;11.70;;;14.60;99.90;;;;;;5013671;28;20105;-52
2022/10/15 10:22:52;;;;;;;19.05;12.73;;;14.70;99.90;;;;;;5014506;28;20488;-49
2022/10/15 10:25:39;;;;;;;20.50;12.93;;;14.70;99.90;;;;;;5041931;28;20400;-50
2022/10/15 10:28:07;;;;;;;;;;;14.80;99.90;;;;;;5020908;28;20389;-50
2022/10/15 10:30:36;;;;;;;20.20;11.88;;;14.80;99.90;;;;;;5022115;28;19912;-52
2022/10/15 10:33:02;;;;;;;19.63;12.98;;;14.70;99.90;;;;;;5017747;28;20022;-53
2022/10/15 10:35:48;;;;;;;19.50;10.80;;;14.60;99.90;;;;;;5022578;28;20411;-52
2022/10/15 10:38:25;;;;;;;;;;;14.70;99.90;;;;;;5015101;28;20423;-51
2022/10/15 10:40:54;;;;;;;18.77;11.85;;;14.70;99.90;;;;;;5021260;28;19912;-51
2022/10/15 10:43:26;;;;;;;18.67;11.88;;;14.80;99.90;;;;;;5022291;28;20032;-52
2022/10/15 10:46:13;;;;;;;16.55;12.50;;;14.70;99.90;;;;;;5021782;28;20033;-51
2022/10/15 10:48:43;;;;;;;16.75;11.02;;;14.80;99.90;;;;;;5002288;28;20144;-50
2022/10/15 10:51:27;;;;;;;19.73;12.48;;;14.80;99.90;;;;;;5019303;28;20089;-52
2022/10/15 10:54:00;;;;;;;16.02;10.77;;;14.90;99.90;;;;;;5021640;28;20026;-53
2022/10/15 10:56:47;;;;;;;19.30;10.90;;;14.90;99.90;;;;;;5016100;28;20101;-55
2022/10/15 10:59:21;;;;;;;15.20;10.60;;;14.90;99.90;;;;;;5018680;28;20450;-52
2022/10/15 11:01:47;;;;;;;16.70;10.48;;;15.00;99.90;;;;;;5021119;28;20040;-50
2022/10/15 11:04:18;;;;;;;18.77;10.73;;;14.90;99.90;;;;;;5018179;28;20033;-50
2022/10/15 11:06:59;;;;;;;15.60;9.63;;;15.00;99.90;;;;;;5024308;28;20385;-52
2022/10/15 11:09:46;;;;;;;16.88;10.20;;;15.00;99.90;;;;;;5022093;28;20076;-53
2022/10/15 11:12:27;;;;;;;16.70;10.38;;;15.10;99.90;;;;;;5020611;28;21289;-51
2022/10/15 11:14:59;;;;;;;14.57;9.35;;;15.10;99.90;;;;;;5019973;28;20455;-53
2022/10/15 11:17:52;;;;;;;15.40;9.40;;;15.10;99.90;;;;;;5020923;28;20465;-50
2022/10/15 11:20:30;;;;;;;15.02;8.60;;;15.20;99.90;;;;;;5012857;28;20029;-52
2022/10/15 11:23:19;;;;;;;12.48;8.07;;;15.30;99.90;;;;;;5010542;28;20121;-51
2022/10/15 11:26:13;;;;;;;12.98;8.02;;;15.30;99.90;;;;;;5022019;28;20571;-51
2022/10/15 11:28:58;;;;;;;12.18;6.82;;;15.30;99.90;;;;;;5033898;28;20037;-55
2022/10/15 11:31:42;;;;;;;10.65;7.22;;;15.40;99.90;;;;;;5013884;28;20078;-50
2022/10/15 11:34:34;;;;;;;11.02;6.65;;;15.30;99.90;;;;;;5019027;28;20029;-52
2022/10/15 11:37:13;;;;;;;13.65;5.70;;;15.40;99.90;;;;;;5025689;28;20079;-50
2022/10/15 11:39:56;;;;;;;10.30;4.82;;;15.40;99.90;;;;;;5017639;28;20284;-50
2022/10/15 11:42:38;;;;;;;6.40;3.40;;;15.40;99.90;;;;;;5011117;28;20028;-50
2022/10/15 11:45:25;;;;;;;7.40;2.75;;;15.40;99.90;;;;;;5018837;28;20065;-54
2022/10/15 11:48:01;;;;;;;3.83;2.78;;;15.40;99.90;;;;;;5015458;28;20037;-51
2022/10/15 11:50:33;;;;;;;12.13;6.13;;;15.50;99.90;;;;;;5014365;28;20029;-53
2022/10/15 11:53:28;;;;;;;8.73;6.75;;;15.60;99.90;;;;;;5020156;28;20039;-53
2022/10/15 11:56:06;;;;;;;7.88;5.35;;;15.70;99.90;;;;;;5013326;28;20076;-51
2022/10/15 11:58:50;;;;;;;8.32;5.40;;;15.80;99.90;;;;;;5017051;28;20017;-55
2022/10/15 12:01:39;;;;;;;7.63;5.18;;;15.90;99.90;;;;;;5025257;28;20068;-50
2022/10/15 12:04:36;;;;;;;7.38;4.68;;;15.90;99.90;;;;;;5020162;28;20032;-56
2022/10/15 12:07:05;;;;;;;6.78;5.03;;;15.90;99.90;;;;;;5020305;28;20447;-53
2022/10/15 12:09:37;;;;;;;6.43;5.10;;;15.90;99.90;;;;;;5036283;28;20072;-50
2022/10/15 12:12:28;;;;;;;7.07;4.30;;;15.90;99.90;;;;;;5018866;28;20030;-51
2022/10/15 12:15:34;;;;;;;5.28;3.92;;;16.00;99.90;;;;;;5018509;28;20551;-52
2022/10/15 12:18:21;;;;;;;5.72;3.40;;;16.00;99.90;;;;;;5015090;28;20038;-50
2022/10/15 12:20:46;;;;;;;6.97;3.90;;;16.00;99.90;;;;;;5020116;28;20026;-54
2022/10/15 12:23:37;;;;;;;2.97;2.65;;;16.00;99.90;;;;;;5020719;28;20039;-51
2022/10/15 12:26:23;;;;;;;4.82;3.20;;;16.00;99.90;;;;;;5020468;28;20030;-50
2022/10/15 12:28:54;;;;;;;3.38;2.90;;;16.00;99.90;;;;;;5013534;28;20539;-53
2022/10/15 12:31:20;;;;;;;3.83;2.50;;;16.00;99.90;;;;;;5012434;28;20049;-51
2022/10/15 12:33:55;;;;;;;4.15;2.30;;;16.00;99.90;;;;;;5020963;28;20542;-50
2022/10/15 12:36:29;;;;;;;2.83;2.00;;;16.00;99.90;;;;;;5017092;28;20044;-53
2022/10/15 12:39:04;;;;;;;4.63;2.22;;;16.00;99.90;;;;;;5019820;28;20066;-50
2022/10/15 12:41:45;;;;;;;2.65;2.22;;;16.00;99.90;;;;;;5010995;28;20025;-51
2022/10/15 12:44:24;;;;;;;5.55;2.45;;;16.00;99.90;;;;;;5017699;28;20504;-51
2022/10/15 12:46:50;;;;;;;6.80;2.25;;;16.00;99.90;;;;;;5009447;28;20033;-51
2022/10/15 12:49:29;;;;;;;4.28;2.17;;;16.00;99.90;;;;;;5022427;28;20557;-51
2022/10/15 12:52:00;;;;;;;3.17;2.20;;;15.90;99.90;;;;;;5015590;28;20022;-50